createdAt,value
2023-05-25T00:00:57.432Z,652.10
2023-05-25T00:01:44.319Z,644.20
2023-05-25T00:02:43.243Z,650.90
2023-05-25T00:03:43.123Z,643.20
2023-05-25T00:04:43.112Z,636.30
2023-05-25T00:05:43.212Z,629.40
2023-05-25T00:06:43.005Z,631.20
2023-05-25T00:07:42.964Z,643.70
2023-05-25T00:08:43.011Z,640.70
2023-05-25T00:09:42.990Z,645.00
2023-05-25T00:10:42.941Z,657.80
2023-05-25T00:11:42.925Z,666.10
2023-05-25T00:12:42.920Z,671.00
2023-05-25T00:13:42.951Z,662.00
2023-05-25T00:14:42.886Z,650.70
2023-05-25T00:15:43.046Z,641.40
2023-05-25T00:16:42.894Z,638.90
2023-05-25T00:17:42.877Z,628.30
2023-05-25T00:18:42.887Z,619.50
2023-05-25T00:19:42.830Z,610.40
2023-05-25T00:20:42.887Z,619.60
2023-05-25T00:21:42.809Z,636.70
2023-05-25T00:22:42.835Z,629.90
2023-05-25T00:23:42.833Z,624.80
2023-05-25T00:24:42.776Z,627.50
2023-05-25T00:25:43.058Z,623.90
2023-05-25T00:26:42.734Z,610.40
2023-05-25T00:27:42.780Z,600.50
2023-05-25T00:28:42.741Z,608.80
2023-05-25T00:29:42.694Z,607.40
2023-05-25T00:30:42.736Z,611.10
2023-05-25T00:31:42.700Z,607.30
2023-05-25T00:32:42.769Z,609.50
2023-05-25T00:33:42.669Z,615.30
2023-05-25T00:34:42.681Z,621.60
2023-05-25T00:35:42.925Z,622.40
2023-05-25T00:36:42.699Z,635.60
2023-05-25T00:37:42.722Z,630.90
2023-05-25T00:38:42.617Z,626.90
2023-05-25T00:39:42.633Z,620.70
2023-05-25T00:40:42.611Z,624.60
2023-05-25T00:41:42.640Z,622.70
2023-05-25T00:42:42.583Z,624.60
2023-05-25T00:43:42.557Z,636.80
2023-05-25T00:44:42.563Z,637.20
2023-05-25T00:45:42.829Z,630.20
2023-05-25T00:46:42.671Z,631.10
2023-05-25T00:47:42.552Z,615.60
2023-05-25T00:48:42.527Z,608.20
2023-05-25T00:49:42.508Z,641.00
2023-05-25T00:50:42.555Z,655.40
2023-05-25T00:51:42.533Z,654.60
2023-05-25T00:52:42.502Z,648.70
2023-05-25T00:53:42.454Z,650.00
2023-05-25T00:54:42.458Z,636.70
2023-05-25T00:55:42.614Z,649.30
2023-05-25T00:56:42.411Z,657.70
2023-05-25T00:57:42.402Z,656.20
2023-05-25T00:58:42.398Z,650.60
2023-05-25T00:59:42.390Z,663.90
2023-05-25T01:00:42.453Z,653.90
2023-05-25T01:01:42.373Z,660.00
2023-05-25T01:02:42.477Z,651.20
2023-05-25T01:03:42.402Z,662.50
2023-05-25T01:04:42.385Z,645.30
2023-05-25T01:05:42.576Z,639.30
2023-05-25T01:06:42.335Z,644.50
2023-05-25T01:07:42.307Z,648.50
2023-05-25T01:08:42.305Z,654.30
2023-05-25T01:09:42.329Z,648.60
2023-05-25T01:10:42.269Z,634.60
2023-05-25T01:11:42.249Z,644.80
2023-05-25T01:12:42.246Z,625.20
2023-05-25T01:13:42.240Z,630.30
2023-05-25T01:14:42.271Z,631.90
2023-05-25T01:15:42.426Z,630.70
2023-05-25T01:16:42.221Z,629.90
2023-05-25T01:17:42.199Z,634.20
2023-05-25T01:18:42.266Z,632.80
2023-05-25T01:19:42.215Z,636.60
2023-05-25T01:20:42.198Z,640.40
2023-05-25T01:21:42.270Z,635.80
2023-05-25T01:22:42.145Z,638.60
2023-05-25T01:23:42.144Z,640.60
2023-05-25T01:24:42.085Z,644.80
2023-05-25T01:25:42.297Z,633.90
2023-05-25T01:26:42.112Z,634.90
2023-05-25T01:27:42.115Z,640.40
2023-05-25T01:28:42.115Z,639.80
2023-05-25T01:29:42.065Z,632.20
2023-05-25T01:30:42.045Z,632.60
2023-05-25T01:31:42.064Z,629.50
2023-05-25T01:32:42.103Z,633.50
2023-05-25T01:33:42.004Z,630.10
2023-05-25T01:34:42.026Z,638.80
2023-05-25T01:35:42.224Z,642.50
2023-05-25T01:36:41.978Z,627.20
2023-05-25T01:37:42.027Z,626.60
2023-05-25T01:38:41.964Z,627.00
2023-05-25T01:39:41.934Z,627.60
2023-05-25T01:40:41.922Z,619.60
2023-05-25T01:41:41.907Z,628.40
2023-05-25T01:42:41.936Z,631.80
2023-05-25T01:43:41.899Z,622.80
2023-05-25T01:44:41.887Z,625.70
2023-05-25T01:45:42.048Z,632.00
2023-05-25T01:46:41.877Z,622.30
2023-05-25T01:47:41.907Z,627.70
2023-05-25T01:48:41.822Z,627.40
2023-05-25T01:49:41.806Z,611.30
2023-05-25T01:50:41.813Z,625.70
2023-05-25T01:51:41.889Z,647.80
2023-05-25T01:52:41.824Z,637.80
2023-05-25T01:53:41.757Z,644.20
2023-05-25T01:54:41.771Z,633.50
2023-05-25T01:55:41.842Z,618.30
2023-05-25T01:56:41.803Z,615.50
2023-05-25T01:57:41.731Z,608.60
2023-05-25T01:58:41.714Z,613.40
2023-05-25T01:59:41.688Z,609.60
2023-05-25T02:00:41.729Z,616.70
2023-05-25T02:01:41.769Z,615.90
2023-05-25T02:02:41.703Z,631.00
2023-05-25T02:03:41.698Z,624.60
2023-05-25T02:04:41.750Z,634.10
2023-05-25T02:05:41.962Z,653.20
2023-05-25T02:06:41.664Z,654.80
2023-05-25T02:07:41.621Z,642.80
2023-05-25T02:08:41.609Z,639.50
2023-05-25T02:09:41.584Z,656.00
2023-05-25T02:10:41.624Z,655.70
2023-05-25T02:11:41.572Z,666.70
2023-05-25T02:12:41.549Z,658.20
2023-05-25T02:13:41.563Z,663.70
2023-05-25T02:14:41.536Z,664.50
2023-05-25T02:15:41.750Z,657.80
2023-05-25T02:16:41.512Z,675.90
2023-05-25T02:17:41.569Z,674.60
2023-05-25T02:18:41.500Z,672.50
2023-05-25T02:19:41.536Z,672.70
2023-05-25T02:20:41.531Z,678.80
2023-05-25T02:21:41.453Z,674.20
2023-05-25T02:22:41.440Z,686.00
2023-05-25T02:23:41.434Z,680.40
2023-05-25T02:24:41.470Z,679.30
2023-05-25T02:25:41.504Z,688.30
2023-05-25T02:26:41.412Z,682.10
2023-05-25T02:27:41.382Z,690.60
2023-05-25T02:28:41.371Z,698.80
2023-05-25T02:29:41.415Z,700.20
2023-05-25T02:30:41.375Z,698.00
2023-05-25T02:31:41.377Z,701.80
2023-05-25T02:32:41.354Z,705.00
2023-05-25T02:33:41.339Z,695.90
2023-05-25T02:34:41.371Z,699.40
2023-05-25T02:35:41.437Z,695.00
2023-05-25T02:36:41.287Z,698.10
2023-05-25T02:37:41.283Z,707.90
2023-05-25T02:38:41.304Z,704.60
2023-05-25T02:39:41.324Z,713.10
2023-05-25T02:40:41.249Z,713.00
2023-05-25T02:41:41.236Z,713.60
2023-05-25T02:42:41.264Z,725.10
2023-05-25T02:43:41.281Z,725.10
2023-05-25T02:44:41.199Z,735.30
2023-05-25T02:45:41.312Z,744.90
2023-05-25T02:46:41.245Z,740.70
2023-05-25T02:47:41.208Z,733.30
2023-05-25T02:48:41.212Z,731.10
2023-05-25T02:49:41.134Z,728.60
2023-05-25T02:50:41.113Z,725.60
2023-05-25T02:51:41.112Z,724.80
2023-05-25T02:52:41.145Z,718.90
2023-05-25T02:53:41.156Z,712.90
2023-05-25T02:54:41.104Z,708.10
2023-05-25T02:55:41.094Z,707.40
2023-05-25T02:56:41.074Z,713.30
2023-05-25T02:57:41.107Z,720.70
2023-05-25T02:58:41.055Z,729.50
2023-05-25T02:59:41.065Z,723.60
2023-05-25T03:00:41.032Z,719.60
2023-05-25T03:01:41.025Z,715.80
2023-05-25T03:02:41.076Z,717.20
2023-05-25T03:03:41.046Z,723.50
2023-05-25T03:04:40.976Z,721.60
2023-05-25T03:05:41.004Z,718.70
2023-05-25T03:06:40.974Z,728.70
2023-05-25T03:07:40.997Z,733.60
2023-05-25T03:08:40.922Z,719.90
2023-05-25T03:09:40.925Z,727.50
2023-05-25T03:10:40.900Z,715.70
2023-05-25T03:11:40.960Z,716.70
2023-05-25T03:12:40.954Z,710.80
2023-05-25T03:13:40.879Z,704.80
2023-05-25T03:14:40.866Z,703.70
2023-05-25T03:15:40.865Z,709.50
2023-05-25T03:16:40.959Z,714.00
2023-05-25T03:17:40.872Z,707.50
2023-05-25T03:18:40.795Z,717.50
2023-05-25T03:19:40.841Z,704.90
2023-05-25T03:20:40.828Z,688.30
2023-05-25T03:21:40.841Z,689.70
2023-05-25T03:22:40.772Z,686.30
2023-05-25T03:23:40.778Z,667.00
2023-05-25T03:24:40.747Z,685.10
2023-05-25T03:25:40.739Z,627.50
2023-05-25T03:26:40.762Z,617.30
2023-05-25T03:27:40.703Z,619.70
2023-05-25T03:28:40.708Z,616.10
2023-05-25T03:29:40.700Z,585.10
2023-05-25T03:30:40.728Z,582.70
2023-05-25T03:31:40.821Z,574.40
2023-05-25T03:32:40.673Z,576.40
2023-05-25T03:33:40.662Z,589.90
2023-05-25T03:34:40.648Z,588.20
2023-05-25T03:35:40.678Z,593.60
2023-05-25T03:36:40.608Z,607.30
2023-05-25T03:37:40.630Z,619.70
2023-05-25T03:38:40.602Z,586.10
2023-05-25T03:39:40.636Z,461.00
2023-05-25T03:40:40.624Z,461.90
2023-05-25T03:41:40.567Z,464.50
2023-05-25T03:42:40.562Z,461.40
2023-05-25T03:43:40.541Z,467.00
2023-05-25T03:44:41.353Z,464.60
2023-05-25T03:45:40.521Z,462.90
2023-05-25T03:46:40.561Z,461.50
2023-05-25T03:47:40.504Z,463.00
2023-05-25T03:48:40.471Z,472.80
2023-05-25T03:49:40.519Z,471.10
2023-05-25T03:50:40.456Z,489.40
2023-05-25T03:51:40.465Z,508.30
2023-05-25T03:52:40.457Z,524.80
2023-05-25T03:53:40.437Z,532.30
2023-05-25T03:54:40.482Z,513.40
2023-05-25T03:55:40.423Z,530.20
2023-05-25T03:56:40.403Z,520.00
2023-05-25T03:57:40.382Z,537.50
2023-05-25T03:58:40.403Z,512.10
2023-05-25T03:59:40.418Z,503.60
2023-05-25T04:00:40.343Z,494.60
2023-05-25T04:01:40.355Z,452.60
2023-05-25T04:02:40.429Z,464.00
2023-05-25T04:03:40.488Z,476.50
2023-05-25T04:04:40.372Z,511.90
2023-05-25T04:05:40.331Z,493.00
2023-05-25T04:06:40.287Z,198.10
2023-05-25T04:07:40.261Z,574.50
2023-05-25T04:08:40.318Z,487.80
2023-05-25T04:09:40.264Z,202.80
2023-05-25T04:10:40.272Z,551.90
2023-05-25T04:11:40.233Z,546.10
2023-05-25T04:12:40.248Z,527.40
2023-05-25T04:13:40.262Z,210.50
2023-05-25T04:14:40.200Z,307.80
2023-05-25T04:15:40.158Z,547.60
2023-05-25T04:16:40.178Z,498.40
2023-05-25T04:17:40.206Z,491.90
2023-05-25T04:18:40.160Z,205.10
2023-05-25T04:19:40.141Z,402.50
2023-05-25T04:20:40.156Z,557.80
2023-05-25T04:21:40.120Z,534.20
2023-05-25T04:22:40.152Z,223.50
2023-05-25T04:23:40.093Z,356.40
2023-05-25T04:24:40.073Z,397.80
2023-05-25T04:25:40.078Z,433.30
2023-05-25T04:26:40.110Z,273.20
2023-05-25T04:27:40.095Z,305.80
2023-05-25T04:28:40.026Z,441.70
2023-05-25T04:29:40.035Z,467.00
2023-05-25T04:30:40.009Z,246.40
2023-05-25T04:31:40.084Z,275.40
2023-05-25T04:32:40.079Z,185.60
2023-05-25T04:33:39.974Z,313.60
2023-05-25T04:34:39.947Z,516.60
2023-05-25T04:35:40.000Z,190.60
2023-05-25T04:36:39.988Z,275.00
2023-05-25T04:37:39.954Z,521.20
2023-05-25T04:38:39.919Z,455.90
2023-05-25T04:39:39.922Z,451.50
2023-05-25T04:40:39.944Z,440.90
2023-05-25T04:41:39.884Z,198.80
2023-05-25T04:42:39.910Z,204.90
2023-05-25T04:43:46.550Z,241.60
2023-05-25T04:44:40.871Z,238.10
2023-05-25T04:45:39.922Z,477.30
2023-05-25T04:46:39.830Z,248.10
2023-05-25T04:47:39.859Z,267.30
2023-05-25T04:48:39.787Z,265.00
2023-05-25T04:49:39.832Z,241.70
2023-05-25T04:50:39.827Z,257.60
2023-05-25T04:51:39.791Z,262.90
2023-05-25T04:52:39.751Z,255.90
2023-05-25T04:53:39.745Z,224.70
2023-05-25T04:54:39.775Z,216.20
2023-05-25T04:55:39.746Z,260.70
2023-05-25T04:56:39.703Z,291.60
2023-05-25T04:57:39.698Z,259.90
2023-05-25T04:58:39.694Z,206.90
2023-05-25T04:59:39.744Z,189.30
2023-05-25T05:00:39.672Z,173.60
2023-05-25T05:01:39.692Z,221.90
2023-05-25T05:02:39.696Z,177.50
2023-05-25T05:03:39.720Z,188.80
2023-05-25T05:04:39.669Z,188.80
2023-05-25T05:05:39.612Z,183.30
2023-05-25T05:06:39.628Z,187.00
2023-05-25T05:07:39.593Z,167.20
2023-05-25T05:08:39.642Z,170.50
2023-05-25T05:09:39.597Z,162.50
2023-05-25T05:10:39.529Z,182.20
2023-05-25T05:11:39.529Z,199.00
2023-05-25T05:12:39.513Z,266.40
2023-05-25T05:13:39.553Z,229.20
2023-05-25T05:14:39.519Z,220.80
2023-05-25T05:15:39.488Z,203.60
2023-05-25T05:16:39.531Z,190.90
2023-05-25T05:17:39.649Z,179.90
2023-05-25T05:18:39.520Z,181.60
2023-05-25T05:19:39.466Z,184.30
2023-05-25T05:20:39.506Z,147.20
2023-05-25T05:21:39.426Z,167.40
2023-05-25T05:22:39.523Z,201.20
2023-05-25T05:23:39.454Z,228.80
2023-05-25T05:24:39.407Z,246.30
2023-05-25T05:25:39.390Z,228.50
2023-05-25T05:26:55.600Z,210.50
2023-05-25T05:27:40.411Z,172.50
2023-05-25T05:28:39.353Z,159.10
2023-05-25T05:29:39.348Z,207.40
2023-05-25T05:30:39.335Z,169.00
2023-05-25T05:31:39.446Z,325.10
2023-05-25T05:32:39.363Z,267.60
2023-05-25T05:33:39.404Z,261.40
2023-05-25T05:34:39.271Z,283.00
2023-05-25T05:35:39.313Z,270.90
2023-05-25T05:36:53.082Z,230.30
2023-05-25T05:37:40.251Z,286.60
2023-05-25T05:38:40.034Z,291.00
2023-05-25T05:39:39.212Z,267.50
2023-05-25T05:40:39.210Z,183.80
2023-05-25T05:41:39.236Z,68.60
2023-05-25T05:42:39.180Z,63.90
2023-05-25T05:43:39.171Z,66.10
2023-05-25T05:44:39.167Z,86.10
2023-05-25T05:45:39.207Z,60.00
2023-05-25T05:46:39.239Z,61.80
2023-05-25T05:47:39.175Z,57.00
2023-05-25T05:48:39.108Z,54.30
2023-05-25T05:49:39.119Z,60.10
2023-05-25T05:50:41.748Z,89.70
2023-05-25T05:51:39.071Z,95.10
2023-05-25T05:52:39.076Z,129.90
2023-05-25T05:53:39.081Z,122.90
2023-05-25T05:54:39.059Z,148.20
2023-05-25T05:55:39.110Z,135.00
2023-05-25T05:56:39.041Z,132.80
2023-05-25T05:57:39.019Z,145.60
2023-05-25T05:58:39.018Z,128.60
2023-05-25T05:59:39.063Z,141.60
2023-05-25T06:00:39.050Z,68.90
2023-05-25T06:01:38.986Z,63.30
2023-05-25T06:02:41.386Z,65.80
2023-05-25T06:03:38.960Z,66.30
2023-05-25T06:04:39.031Z,78.40
2023-05-25T06:05:38.992Z,70.20
2023-05-25T06:06:38.907Z,81.40
2023-05-25T06:07:38.921Z,81.50
2023-05-25T06:08:38.878Z,109.30
2023-05-25T06:09:38.919Z,125.80
2023-05-25T06:10:38.891Z,127.00
2023-05-25T06:11:38.881Z,130.40
2023-05-25T06:12:38.863Z,124.20
2023-05-25T06:13:38.870Z,103.00
2023-05-25T06:14:38.861Z,90.30
2023-05-25T06:15:38.817Z,100.20
2023-05-25T06:16:38.869Z,87.80
2023-05-25T06:17:38.831Z,73.50
2023-05-25T06:18:38.843Z,65.90
2023-05-25T06:19:38.807Z,55.10
2023-05-25T06:20:38.792Z,63.50
2023-05-25T06:21:38.755Z,49.20
2023-05-25T06:22:38.742Z,43.10
2023-05-25T06:23:38.758Z,51.80
2023-05-25T06:24:38.711Z,36.80
2023-05-25T06:25:38.732Z,47.60
2023-05-25T06:26:38.698Z,33.80
2023-05-25T06:27:38.740Z,31.50
2023-05-25T06:28:38.717Z,41.90
2023-05-25T06:29:38.659Z,65.60
2023-05-25T06:30:38.689Z,53.70
2023-05-25T06:31:38.667Z,35.90
2023-05-25T06:32:38.717Z,29.50
2023-05-25T06:33:38.651Z,32.00
2023-05-25T06:34:38.605Z,30.90
2023-05-25T06:35:38.575Z,31.30
2023-05-25T06:36:38.573Z,34.40
2023-05-25T06:37:38.642Z,41.90
2023-05-25T06:38:38.582Z,33.20
2023-05-25T06:39:38.562Z,32.60
2023-05-25T06:40:38.521Z,35.30
2023-05-25T06:41:38.596Z,38.50
2023-05-25T06:42:38.561Z,38.70
2023-05-25T06:43:38.514Z,40.10
2023-05-25T06:44:38.560Z,45.50
2023-05-25T06:45:38.484Z,49.80
2023-05-25T06:46:38.590Z,44.00
2023-05-25T06:47:39.128Z,42.50
2023-05-25T06:48:38.452Z,33.70
2023-05-25T06:49:38.450Z,23.60
2023-05-25T06:50:38.457Z,39.40
2023-05-25T06:51:38.469Z,23.90
2023-05-25T06:52:38.391Z,35.70
2023-05-25T06:53:38.389Z,24.20
2023-05-25T06:54:38.712Z,24.20
2023-05-25T06:55:38.419Z,23.20
2023-05-25T06:56:38.413Z,21.60
2023-05-25T06:57:38.352Z,23.20
2023-05-25T06:58:38.333Z,23.10
2023-05-25T06:59:38.351Z,22.60
2023-05-25T07:00:38.388Z,30.20
2023-05-25T07:01:38.364Z,25.20
2023-05-25T07:02:38.326Z,24.70
2023-05-25T07:03:38.275Z,24.80
2023-05-25T07:04:38.310Z,21.10
2023-05-25T07:05:38.308Z,22.60
2023-05-25T07:06:38.254Z,20.20
2023-05-25T07:07:38.222Z,19.50
2023-05-25T07:08:38.222Z,19.40
2023-05-25T07:09:38.257Z,20.60
2023-05-25T07:10:38.248Z,17.30
2023-05-25T07:11:38.194Z,21.30
2023-05-25T07:12:38.169Z,22.30
2023-05-25T07:13:38.145Z,24.70
2023-05-25T07:14:38.204Z,22.30
2023-05-25T07:15:38.146Z,23.00
2023-05-25T07:16:38.215Z,28.20
2023-05-25T07:17:38.153Z,22.00
2023-05-25T07:18:38.126Z,21.10
2023-05-25T07:19:38.149Z,22.10
2023-05-25T07:20:38.245Z,22.40
2023-05-25T07:21:38.090Z,21.90
2023-05-25T07:22:38.065Z,21.30
2023-05-25T07:23:38.113Z,20.90
2023-05-25T07:24:38.116Z,24.10
2023-05-25T07:25:38.090Z,21.90
2023-05-25T07:26:38.048Z,21.80
2023-05-25T07:27:38.039Z,24.80
2023-05-25T07:28:38.065Z,23.20
2023-05-25T07:29:37.999Z,23.20
2023-05-25T07:30:37.986Z,23.20
2023-05-25T07:31:37.985Z,23.20
2023-05-25T07:32:38.002Z,23.70
2023-05-25T07:33:38.007Z,25.10
2023-05-25T07:34:37.980Z,25.20
2023-05-25T07:35:37.937Z,26.30
2023-05-25T07:36:37.927Z,26.90
2023-05-25T07:37:37.979Z,26.50
2023-05-25T07:38:37.958Z,25.70
2023-05-25T07:39:37.879Z,24.30
2023-05-25T07:40:37.900Z,26.10
2023-05-25T07:41:37.881Z,26.50
2023-05-25T07:42:37.949Z,26.30
2023-05-25T07:43:37.837Z,24.50
2023-05-25T07:44:37.829Z,25.90
2023-05-25T07:45:37.834Z,25.90
2023-05-25T07:46:37.838Z,26.70
2023-05-25T07:47:37.979Z,27.40
2023-05-25T07:48:37.795Z,19.70
2023-05-25T07:49:37.793Z,19.60
2023-05-25T07:50:37.768Z,19.80
2023-05-25T07:51:37.828Z,22.60
2023-05-25T07:52:37.796Z,19.30
2023-05-25T07:53:37.828Z,20.20
2023-05-25T07:54:37.798Z,24.60
2023-05-25T07:55:37.710Z,29.60
2023-05-25T07:56:37.739Z,28.40
2023-05-25T07:57:37.715Z,22.60
2023-05-25T07:58:37.653Z,19.70
2023-05-25T07:59:37.627Z,19.30
2023-05-25T08:00:37.684Z,20.30
2023-05-25T08:01:37.704Z,20.40
2023-05-25T08:02:37.854Z,20.80
2023-05-25T08:03:48.923Z,21.80
2023-05-25T08:04:38.788Z,22.70
2023-05-25T08:05:37.685Z,22.30
2023-05-25T08:06:37.638Z,24.60
2023-05-25T08:07:38.283Z,25.80
2023-05-25T08:08:37.551Z,24.60
2023-05-25T08:09:37.583Z,21.80
2023-05-25T08:10:37.658Z,20.00
2023-05-25T08:11:37.561Z,24.90
2023-05-25T08:12:47.058Z,23.70
2023-05-25T08:13:38.539Z,24.50
2023-05-25T08:14:37.528Z,23.20
2023-05-25T08:15:37.516Z,22.70
2023-05-25T08:16:37.492Z,23.80
2023-05-25T08:17:37.499Z,23.80
2023-05-25T08:18:37.478Z,24.10
2023-05-25T08:19:37.487Z,25.10
2023-05-25T08:20:37.535Z,24.20
2023-05-25T08:21:37.431Z,23.10
2023-05-25T08:22:37.411Z,23.40
2023-05-25T08:23:37.401Z,22.60
2023-05-25T08:24:37.479Z,23.20
2023-05-25T08:25:37.390Z,23.10
2023-05-25T08:26:53.141Z,23.00
2023-05-25T08:27:38.354Z,22.80
2023-05-25T08:28:37.334Z,21.70
2023-05-25T08:29:37.358Z,22.80
2023-05-25T08:30:37.332Z,22.50
2023-05-25T08:31:37.423Z,23.50
2023-05-25T08:32:37.325Z,20.30
2023-05-25T08:33:37.341Z,20.30
2023-05-25T08:34:37.305Z,21.20
2023-05-25T08:35:37.248Z,22.20
2023-05-25T08:36:37.254Z,22.80
2023-05-25T08:37:37.241Z,24.40
2023-05-25T08:38:37.278Z,22.20
2023-05-25T08:39:37.239Z,20.40
2023-05-25T08:40:37.221Z,23.80
2023-05-25T08:41:37.202Z,24.20
2023-05-25T08:42:37.198Z,22.30
2023-05-25T08:43:37.214Z,23.30
2023-05-25T08:44:37.166Z,21.90
2023-05-25T08:45:40.564Z,20.20
2023-05-25T08:46:38.137Z,19.00
2023-05-25T08:47:37.182Z,22.30
2023-05-25T08:48:41.507Z,25.20
2023-05-25T08:49:38.147Z,33.20
2023-05-25T08:50:37.116Z,22.90
2023-05-25T08:51:37.123Z,24.60
2023-05-25T08:52:37.144Z,22.90
2023-05-25T08:53:37.066Z,27.70
2023-05-25T08:54:37.025Z,30.20
2023-05-25T08:55:37.036Z,26.50
2023-05-25T08:56:37.188Z,23.80
2023-05-25T08:57:37.052Z,23.50
2023-05-25T08:58:37.012Z,26.80
2023-05-25T08:59:37.021Z,29.60
2023-05-25T09:00:36.988Z,26.30
2023-05-25T09:01:37.048Z,32.90
2023-05-25T09:02:37.087Z,25.80
2023-05-25T09:03:37.070Z,26.40
2023-05-25T09:04:36.963Z,23.90
2023-05-25T09:05:38.182Z,22.60
2023-05-25T09:06:37.000Z,22.80
2023-05-25T09:07:36.952Z,24.80
2023-05-25T09:08:36.899Z,26.60
2023-05-25T09:09:36.880Z,25.00
2023-05-25T09:10:36.928Z,23.00
2023-05-25T09:11:40.400Z,19.50
2023-05-25T09:12:36.867Z,19.90
2023-05-25T09:13:36.838Z,25.70
2023-05-25T09:14:36.837Z,24.50
2023-05-25T09:15:36.877Z,22.60
2023-05-25T09:16:36.878Z,22.80
2023-05-25T09:17:38.290Z,20.70
2023-05-25T09:18:36.843Z,25.10
2023-05-25T09:19:36.771Z,34.30
2023-05-25T09:20:36.950Z,30.80
2023-05-25T09:21:36.781Z,23.90
2023-05-25T09:22:36.752Z,22.80
2023-05-25T09:23:36.715Z,23.60
2023-05-25T09:24:36.713Z,25.90
2023-05-25T09:25:36.746Z,30.40
2023-05-25T09:26:36.732Z,23.40
2023-05-25T09:27:36.737Z,30.40
2023-05-25T09:28:36.703Z,23.40
2023-05-25T09:29:36.740Z,20.60
2023-05-25T09:30:36.764Z,26.10
2023-05-25T09:31:36.662Z,26.70
2023-05-25T09:32:36.671Z,23.40
2023-05-25T09:33:37.235Z,26.10
2023-05-25T09:34:36.694Z,24.80
2023-05-25T09:35:36.623Z,22.80
2023-05-25T09:36:36.678Z,17.90
2023-05-25T09:37:36.709Z,23.40
2023-05-25T09:38:36.755Z,22.40
2023-05-25T09:39:36.825Z,29.30
2023-05-25T09:40:36.589Z,31.10
2023-05-25T09:41:36.557Z,31.70
2023-05-25T09:42:36.576Z,29.70
2023-05-25T09:43:44.508Z,26.20
2023-05-25T09:44:37.578Z,29.10
2023-05-25T09:45:38.187Z,31.80
2023-05-25T09:46:36.569Z,26.60
2023-05-25T09:47:36.587Z,26.40
2023-05-25T09:48:36.516Z,30.50
2023-05-25T09:49:36.451Z,22.20
2023-05-25T09:50:36.431Z,27.70
2023-05-25T09:51:36.425Z,31.80
2023-05-25T09:52:36.435Z,25.40
2023-05-25T09:53:36.474Z,27.20
2023-05-25T09:54:36.417Z,39.50
2023-05-25T09:55:51.336Z,29.70
2023-05-25T09:56:37.395Z,28.30
2023-05-25T09:57:36.400Z,30.50
2023-05-25T09:58:36.471Z,27.70
2023-05-25T09:59:36.359Z,25.80
2023-05-25T10:00:36.348Z,22.80
2023-05-25T10:01:36.376Z,19.90
2023-05-25T10:02:36.411Z,33.40
2023-05-25T10:03:36.321Z,33.80
2023-05-25T10:04:36.347Z,37.20
2023-05-25T10:05:36.261Z,36.50
2023-05-25T10:06:36.292Z,44.10
2023-05-25T10:07:36.293Z,51.30
2023-05-25T10:08:36.258Z,63.60
2023-05-25T10:09:36.236Z,42.70
2023-05-25T10:10:36.252Z,30.60
2023-05-25T10:11:36.319Z,20.80
2023-05-25T10:12:36.285Z,33.50
2023-05-25T10:13:36.193Z,22.20
2023-05-25T10:14:36.214Z,23.60
2023-05-25T10:15:36.204Z,27.20
2023-05-25T10:16:36.309Z,26.20
2023-05-25T10:17:36.175Z,21.10
2023-05-25T10:18:36.148Z,20.10
2023-05-25T10:19:36.156Z,20.00
2023-05-25T10:20:36.170Z,22.10
2023-05-25T10:21:36.171Z,24.10
2023-05-25T10:22:36.109Z,23.70
2023-05-25T10:23:36.096Z,24.90
2023-05-25T10:24:36.110Z,26.90
2023-05-25T10:25:36.144Z,29.40
2023-05-25T10:26:36.122Z,31.80
2023-05-25T10:27:36.088Z,29.00
2023-05-25T10:28:36.044Z,28.80
2023-05-25T10:29:36.030Z,24.60
2023-05-25T10:30:36.084Z,21.60
2023-05-25T10:31:36.014Z,28.00
2023-05-25T10:32:36.029Z,30.30
2023-05-25T10:33:36.020Z,24.70
2023-05-25T10:34:35.984Z,27.10
2023-05-25T10:35:42.483Z,29.40
2023-05-25T10:36:36.979Z,25.70
2023-05-25T10:37:35.932Z,24.50
2023-05-25T10:38:35.920Z,26.30
2023-05-25T10:39:35.962Z,20.40
2023-05-25T10:40:35.949Z,21.40
2023-05-25T10:41:35.902Z,23.00
2023-05-25T10:42:35.909Z,24.40
2023-05-25T10:43:35.872Z,26.40
2023-05-25T10:44:35.898Z,28.40
2023-05-25T10:45:35.838Z,26.40
2023-05-25T10:46:35.877Z,21.10
2023-05-25T10:47:35.847Z,24.70
2023-05-25T10:48:35.823Z,28.00
2023-05-25T10:49:35.870Z,20.10
2023-05-25T10:50:35.819Z,20.90
2023-05-25T10:51:35.808Z,20.30
2023-05-25T10:52:35.792Z,20.20
2023-05-25T10:53:35.829Z,20.10
2023-05-25T10:54:35.812Z,18.90
2023-05-25T10:55:35.798Z,20.30
2023-05-25T10:56:35.836Z,24.50
2023-05-25T10:57:35.774Z,28.00
2023-05-25T10:58:35.791Z,29.40
2023-05-25T10:59:35.756Z,30.80
2023-05-25T11:00:35.794Z,31.20
2023-05-25T11:01:35.769Z,34.90
2023-05-25T11:02:35.682Z,37.10
2023-05-25T11:03:35.731Z,26.90
2023-05-25T11:04:35.713Z,21.90
2023-05-25T11:05:35.669Z,20.60
2023-05-25T11:06:35.612Z,17.90
2023-05-25T11:07:35.680Z,20.50
2023-05-25T11:08:35.682Z,21.30
2023-05-25T11:09:35.631Z,23.20
2023-05-25T11:10:35.644Z,24.10
2023-05-25T11:11:35.581Z,23.10
2023-05-25T11:12:35.667Z,24.10
2023-05-25T11:13:37.754Z,24.50
2023-05-25T11:14:35.560Z,25.30
2023-05-25T11:15:35.563Z,26.30
2023-05-25T11:16:35.594Z,27.40
2023-05-25T11:17:36.153Z,27.60
2023-05-25T11:18:35.537Z,27.90
2023-05-25T11:19:35.532Z,28.20
2023-05-25T11:20:35.551Z,28.70
2023-05-25T11:21:35.501Z,28.90
2023-05-25T11:22:35.530Z,29.80
2023-05-25T11:23:35.467Z,31.60
2023-05-25T11:24:35.509Z,33.00
2023-05-25T11:25:36.965Z,36.10
2023-05-25T11:26:35.838Z,37.80
2023-05-25T11:27:35.559Z,40.30
2023-05-25T11:28:35.740Z,40.50
2023-05-25T11:29:35.977Z,41.80
2023-05-25T11:30:35.762Z,42.10
2023-05-25T11:31:40.590Z,42.60
2023-05-25T11:32:36.734Z,40.00
2023-05-25T11:33:35.540Z,41.00
2023-05-25T11:34:36.625Z,41.10
2023-05-25T11:35:37.755Z,40.20
2023-05-25T11:36:36.777Z,43.40
2023-05-25T11:37:36.130Z,41.50
2023-05-25T11:38:35.507Z,39.80
2023-05-25T11:39:37.036Z,41.60
2023-05-25T11:40:39.331Z,40.80
2023-05-25T11:41:35.537Z,40.20
2023-05-25T11:42:36.058Z,41.20
2023-05-25T11:43:38.574Z,40.20
2023-05-25T11:44:37.577Z,41.80
2023-05-25T11:45:35.549Z,40.80
2023-05-25T11:46:37.329Z,40.80
2023-05-25T11:47:35.989Z,37.10
2023-05-25T11:48:35.411Z,34.80
2023-05-25T11:49:36.357Z,35.90
2023-05-25T11:50:49.635Z,35.30
2023-05-25T11:51:35.350Z,35.00
2023-05-25T11:52:36.815Z,35.20
2023-05-25T11:53:35.432Z,35.40
2023-05-25T11:54:36.316Z,31.60
2023-05-25T11:55:35.412Z,28.10
2023-05-25T11:56:36.193Z,25.20
2023-05-25T11:57:35.318Z,26.80
2023-05-25T11:58:36.638Z,27.40
2023-05-25T11:59:36.654Z,31.10
2023-05-25T12:00:38.718Z,29.70
2023-05-25T12:01:35.551Z,29.20
2023-05-25T12:02:35.425Z,24.80
2023-05-25T12:03:35.606Z,26.70
2023-05-25T12:04:35.537Z,26.30
2023-05-25T12:05:35.490Z,25.30
2023-05-25T12:06:35.755Z,25.70
2023-05-25T12:07:35.439Z,26.50
2023-05-25T12:08:35.519Z,25.20
2023-05-25T12:09:35.523Z,24.40
2023-05-25T12:10:35.450Z,23.60
2023-05-25T12:11:35.220Z,23.60
2023-05-25T12:12:35.263Z,23.40
2023-05-25T12:13:36.425Z,24.30
2023-05-25T12:14:35.400Z,25.30
2023-05-25T12:15:36.438Z,24.20
2023-05-25T12:16:36.423Z,24.00
2023-05-25T12:17:35.282Z,25.50
2023-05-25T12:18:35.540Z,26.20
2023-05-25T12:19:36.311Z,25.40
2023-05-25T12:20:35.984Z,23.20
2023-05-25T12:21:37.089Z,21.80
2023-05-25T12:22:34.931Z,17.30
2023-05-25T12:23:35.576Z,17.40
2023-05-25T12:24:34.837Z,23.10
2023-05-25T12:25:46.516Z,26.40
2023-05-25T12:26:35.849Z,24.90
2023-05-25T12:27:34.870Z,26.60
2023-05-25T12:28:34.814Z,28.50
2023-05-25T12:29:34.832Z,28.80
2023-05-25T12:30:35.734Z,25.20
2023-05-25T12:31:34.794Z,25.00
2023-05-25T12:32:34.859Z,23.30
2023-05-25T12:33:34.785Z,21.50
2023-05-25T12:34:34.740Z,24.30
2023-05-25T12:35:34.730Z,24.40
2023-05-25T12:36:34.786Z,23.00
2023-05-25T12:37:34.791Z,21.40
2023-05-25T12:38:34.709Z,26.80
2023-05-25T12:39:34.750Z,26.50
2023-05-25T12:40:34.699Z,23.90
2023-05-25T12:41:34.740Z,23.00